Aeroporto :
LOGIN :

Iscrizione | Disclaimer

   EN    FR    IT 

 










Sommario :    VFR   VFR Marginale   IFR   IFR Intensivo   IFR Molto Intensivo
Visibilità : 
Base nubi : 
>= 8 km
>= 3000ft
5 / 8 km
1000 / 3000 ft
1500m / 5 km
500 / 1000 ft
800 / 1500m
200 / 500 ft
< 800m
< 200 ft
Simboli :   Temporali  Nebbia  Neve Forte  Precipitazioni Forti  Vento > 20 kt
SIGMETs :   Varie  Temporali  Ghiacco  Turbolenza  Onda orograficha  Ceneri Vulcaniche






- Altitudine del aeroporto : 1375 ft
- Codice IATA : SCV


LRSV - Suceava Stefan cel Mare

ULTIMO METAR :
  • 011230Z 36013KT 320V030 9999 SCT052 16/06 Q1011 R16/CLRD//

METARs OBSOLETI :
  • 011200Z AUTO 36015KT 330V030 9999 FEW040/// 16/07 Q1011
  • 011130Z 36017KT 9999 SCT047 15/06 Q1011 R16/29//95

TAF TAF LRSV
Valido dal 01 a 12 ore il 01 a 21 ore UTC


011100Z 0112/0121 34017KT 9999 BKN040
TEMPO 0112/0118 5000 SHRA SCT030CB BKN040
BECMG 0118/0120 5000 -RA BKN015 BKN030



MetMap, La meteo Aeronautica in un colpo d'occhio ! - Copyright ORBIFLY Dicembre 2007 - Disclaimer

ORBIFLY MET'MAP TEAM :

Programmazione e sviluppo : Alexandra Zaïnal
Concezione : Baudouin d'Aumeries
Aiuto per la programmazione : Marc-Olivier Méhu
Supporto tecnico e logistico : Manuel Goepfert
Aiuto per la traduzione : Arnaldo La Scala

Contatto : metmap@orbifly.com




FONTI E CREDITI :

   NOAA